sensor_id;sensor_type;location;lat;lon;timestamp;P1;durP1;ratioP1;P2;durP2;ratioP2
63203;SDS011;49297;43.210;27.914;2024-01-25T00:00:56;24.92;;;22.40;;
63203;SDS011;49297;43.210;27.914;2024-01-25T00:03:24;24.35;;;21.70;;
63203;SDS011;49297;43.210;27.914;2024-01-25T00:05:53;23.92;;;21.33;;
63203;SDS011;49297;43.210;27.914;2024-01-25T00:08:21;26.83;;;23.37;;
63203;SDS011;49297;43.210;27.914;2024-01-25T00:10:49;29.90;;;26.80;;
63203;SDS011;49297;43.210;27.914;2024-01-25T00:13:17;32.70;;;29.02;;
63203;SDS011;49297;43.210;27.914;2024-01-25T00:15:46;30.67;;;27.37;;
63203;SDS011;49297;43.210;27.914;2024-01-25T00:18:14;28.30;;;25.30;;
63203;SDS011;49297;43.210;27.914;2024-01-25T00:20:42;26.23;;;23.55;;
63203;SDS011;49297;43.210;27.914;2024-01-25T00:23:11;25.40;;;22.67;;
63203;SDS011;49297;43.210;27.914;2024-01-25T00:25:39;31.05;;;27.75;;
63203;SDS011;49297;43.210;27.914;2024-01-25T00:28:08;27.35;;;24.65;;
63203;SDS011;49297;43.210;27.914;2024-01-25T00:30:36;30.40;;;25.85;;
63203;SDS011;49297;43.210;27.914;2024-01-25T00:33:04;30.43;;;24.77;;
63203;SDS011;49297;43.210;27.914;2024-01-25T00:35:32;29.23;;;26.45;;
63203;SDS011;49297;43.210;27.914;2024-01-25T00:38:03;31.60;;;27.92;;
63203;SDS011;49297;43.210;27.914;2024-01-25T00:40:33;28.43;;;25.43;;
63203;SDS011;49297;43.210;27.914;2024-01-25T00:43:03;30.17;;;27.00;;
63203;SDS011;49297;43.210;27.914;2024-01-25T00:45:33;27.45;;;24.70;;
63203;SDS011;49297;43.210;27.914;2024-01-25T00:48:03;28.05;;;25.30;;
63203;SDS011;49297;43.210;27.914;2024-01-25T00:50:34;29.65;;;26.55;;
63203;SDS011;49297;43.210;27.914;2024-01-25T00:53:03;31.35;;;28.23;;
63203;SDS011;49297;43.210;27.914;2024-01-25T00:55:37;31.58;;;27.90;;
63203;SDS011;49297;43.210;27.914;2024-01-25T00:58:07;29.00;;;25.90;;
63203;SDS011;49297;43.210;27.914;2024-01-25T01:00:38;35.30;;;30.07;;
63203;SDS011;49297;43.210;27.914;2024-01-25T01:03:08;32.10;;;28.98;;
63203;SDS011;49297;43.210;27.914;2024-01-25T01:05:38;32.03;;;28.73;;
63203;SDS011;49297;43.210;27.914;2024-01-25T01:08:08;31.20;;;27.77;;
63203;SDS011;49297;43.210;27.914;2024-01-25T01:10:41;33.17;;;29.95;;
63203;SDS011;49297;43.210;27.914;2024-01-25T01:13:09;28.38;;;25.13;;
63203;SDS011;49297;43.210;27.914;2024-01-25T01:15:37;40.65;;;32.28;;
63203;SDS011;49297;43.210;27.914;2024-01-25T01:18:06;32.33;;;28.92;;
63203;SDS011;49297;43.210;27.914;2024-01-25T01:20:34;37.92;;;29.77;;
63203;SDS011;49297;43.210;27.914;2024-01-25T01:23:03;43.17;;;33.30;;
63203;SDS011;49297;43.210;27.914;2024-01-25T01:25:31;40.47;;;30.58;;
63203;SDS011;49297;43.210;27.914;2024-01-25T01:28:00;43.30;;;33.33;;
63203;SDS011;49297;43.210;27.914;2024-01-25T01:30:28;37.28;;;30.33;;
63203;SDS011;49297;43.210;27.914;2024-01-25T01:32:56;38.47;;;29.27;;
63203;SDS011;49297;43.210;27.914;2024-01-25T01:35:24;32.72;;;29.23;;
63203;SDS011;49297;43.210;27.914;2024-01-25T01:37:53;42.17;;;33.30;;
63203;SDS011;49297;43.210;27.914;2024-01-25T01:40:21;37.10;;;30.80;;
63203;SDS011;49297;43.210;27.914;2024-01-25T01:42:49;36.13;;;29.98;;
63203;SDS011;49297;43.210;27.914;2024-01-25T01:45:18;30.90;;;27.87;;
63203;SDS011;49297;43.210;27.914;2024-01-25T01:47:49;33.60;;;29.65;;
63203;SDS011;49297;43.210;27.914;2024-01-25T01:50:17;33.90;;;30.30;;
63203;SDS011;49297;43.210;27.914;2024-01-25T01:52:46;30.52;;;25.60;;
63203;SDS011;49297;43.210;27.914;2024-01-25T01:55:16;33.28;;;29.88;;
63203;SDS011;49297;43.210;27.914;2024-01-25T01:57:45;31.05;;;28.00;;
63203;SDS011;49297;43.210;27.914;2024-01-25T02:00:15;34.83;;;31.10;;
63203;SDS011;49297;43.210;27.914;2024-01-25T02:02:44;30.23;;;26.40;;
63203;SDS011;49297;43.210;27.914;2024-01-25T02:05:13;32.93;;;29.53;;
63203;SDS011;49297;43.210;27.914;2024-01-25T02:07:41;33.47;;;29.02;;
63203;SDS011;49297;43.210;27.914;2024-01-25T02:10:11;36.88;;;30.60;;
63203;SDS011;49297;43.210;27.914;2024-01-25T02:12:40;37.05;;;29.65;;
63203;SDS011;49297;43.210;27.914;2024-01-25T02:15:08;33.40;;;29.77;;
63203;SDS011;49297;43.210;27.914;2024-01-25T02:17:37;37.17;;;30.83;;
63203;SDS011;49297;43.210;27.914;2024-01-25T02:20:06;33.45;;;29.88;;
63203;SDS011;49297;43.210;27.914;2024-01-25T02:22:37;36.75;;;32.50;;
63203;SDS011;49297;43.210;27.914;2024-01-25T02:25:06;34.67;;;30.90;;
63203;SDS011;49297;43.210;27.914;2024-01-25T02:27:35;41.47;;;30.27;;
63203;SDS011;49297;43.210;27.914;2024-01-25T02:30:05;38.58;;;29.38;;
63203;SDS011;49297;43.210;27.914;2024-01-25T02:32:36;33.88;;;30.25;;
63203;SDS011;49297;43.210;27.914;2024-01-25T02:35:05;40.38;;;34.90;;
63203;SDS011;49297;43.210;27.914;2024-01-25T02:37:34;36.45;;;32.00;;
63203;SDS011;49297;43.210;27.914;2024-01-25T02:40:03;37.75;;;31.63;;
63203;SDS011;49297;43.210;27.914;2024-01-25T02:42:37;35.58;;;31.75;;
63203;SDS011;49297;43.210;27.914;2024-01-25T02:45:06;36.38;;;32.67;;
63203;SDS011;49297;43.210;27.914;2024-01-25T02:47:36;41.63;;;34.95;;
63203;SDS011;49297;43.210;27.914;2024-01-25T02:50:05;42.58;;;35.55;;
63203;SDS011;49297;43.210;27.914;2024-01-25T02:52:35;38.00;;;33.97;;
63203;SDS011;49297;43.210;27.914;2024-01-25T02:55:04;36.10;;;32.28;;
63203;SDS011;49297;43.210;27.914;2024-01-25T02:57:33;44.55;;;34.80;;
63203;SDS011;49297;43.210;27.914;2024-01-25T03:00:01;39.60;;;34.40;;
63203;SDS011;49297;43.210;27.914;2024-01-25T03:02:31;34.22;;;30.50;;
63203;SDS011;49297;43.210;27.914;2024-01-25T03:04:59;37.53;;;28.95;;
63203;SDS011;49297;43.210;27.914;2024-01-25T03:07:27;33.53;;;27.15;;
63203;SDS011;49297;43.210;27.914;2024-01-25T03:09:56;31.13;;;27.58;;
63203;SDS011;49297;43.210;27.914;2024-01-25T03:12:24;29.80;;;26.67;;
63203;SDS011;49297;43.210;27.914;2024-01-25T03:14:53;30.08;;;26.92;;
63203;SDS011;49297;43.210;27.914;2024-01-25T03:17:22;29.90;;;26.48;;
63203;SDS011;49297;43.210;27.914;2024-01-25T03:19:50;29.73;;;26.63;;
63203;SDS011;49297;43.210;27.914;2024-01-25T03:22:18;27.63;;;24.67;;
63203;SDS011;49297;43.210;27.914;2024-01-25T03:24:46;30.23;;;25.88;;
63203;SDS011;49297;43.210;27.914;2024-01-25T03:27:15;30.77;;;25.05;;
63203;SDS011;49297;43.210;27.914;2024-01-25T03:29:43;28.20;;;25.33;;
63203;SDS011;49297;43.210;27.914;2024-01-25T03:32:13;29.40;;;26.30;;
63203;SDS011;49297;43.210;27.914;2024-01-25T03:34:41;27.08;;;23.55;;
63203;SDS011;49297;43.210;27.914;2024-01-25T03:37:10;29.00;;;25.92;;
63203;SDS011;49297;43.210;27.914;2024-01-25T03:39:39;33.42;;;25.65;;
63203;SDS011;49297;43.210;27.914;2024-01-25T03:42:07;29.35;;;26.05;;
63203;SDS011;49297;43.210;27.914;2024-01-25T03:44:36;29.92;;;26.83;;
63203;SDS011;49297;43.210;27.914;2024-01-25T03:47:04;27.75;;;24.92;;
63203;SDS011;49297;43.210;27.914;2024-01-25T03:49:32;34.67;;;26.15;;
63203;SDS011;49297;43.210;27.914;2024-01-25T03:52:00;27.40;;;24.50;;
63203;SDS011;49297;43.210;27.914;2024-01-25T03:54:29;30.65;;;23.73;;
63203;SDS011;49297;43.210;27.914;2024-01-25T03:56:57;28.17;;;25.23;;
63203;SDS011;49297;43.210;27.914;2024-01-25T03:59:25;29.57;;;26.33;;
63203;SDS011;49297;43.210;27.914;2024-01-25T04:01:54;30.33;;;27.13;;
63203;SDS011;49297;43.210;27.914;2024-01-25T04:04:22;32.77;;;29.33;;
63203;SDS011;49297;43.210;27.914;2024-01-25T04:06:51;27.13;;;24.25;;
63203;SDS011;49297;43.210;27.914;2024-01-25T04:09:19;33.78;;;30.05;;
63203;SDS011;49297;43.210;27.914;2024-01-25T04:11:48;36.45;;;32.67;;
63203;SDS011;49297;43.210;27.914;2024-01-25T04:14:16;30.15;;;26.98;;
63203;SDS011;49297;43.210;27.914;2024-01-25T04:16:44;29.95;;;26.95;;
63203;SDS011;49297;43.210;27.914;2024-01-25T04:19:13;29.20;;;26.00;;
63203;SDS011;49297;43.210;27.914;2024-01-25T04:21:41;31.35;;;28.15;;
63203;SDS011;49297;43.210;27.914;2024-01-25T04:24:09;38.90;;;29.83;;
63203;SDS011;49297;43.210;27.914;2024-01-25T04:26:37;30.10;;;27.08;;
63203;SDS011;49297;43.210;27.914;2024-01-25T04:29:06;29.67;;;26.70;;
63203;SDS011;49297;43.210;27.914;2024-01-25T04:31:35;33.97;;;30.33;;
63203;SDS011;49297;43.210;27.914;2024-01-25T04:34:29;32.05;;;28.52;;
63203;SDS011;49297;43.210;27.914;2024-01-25T04:36:59;31.58;;;27.67;;
63203;SDS011;49297;43.210;27.914;2024-01-25T04:39:27;32.15;;;28.95;;
63203;SDS011;49297;43.210;27.914;2024-01-25T04:41:55;31.40;;;28.13;;
63203;SDS011;49297;43.210;27.914;2024-01-25T04:44:25;32.88;;;29.58;;
63203;SDS011;49297;43.210;27.914;2024-01-25T04:46:53;51.42;;;32.00;;
63203;SDS011;49297;43.210;27.914;2024-01-25T04:49:21;39.17;;;34.88;;
63203;SDS011;49297;43.210;27.914;2024-01-25T04:51:50;40.30;;;32.33;;
63203;SDS011;49297;43.210;27.914;2024-01-25T04:54:18;35.63;;;32.03;;
63203;SDS011;49297;43.210;27.914;2024-01-25T04:56:46;36.45;;;32.55;;
63203;SDS011;49297;43.210;27.914;2024-01-25T04:59:15;42.43;;;36.23;;
63203;SDS011;49297;43.210;27.914;2024-01-25T05:01:43;38.70;;;34.80;;
63203;SDS011;49297;43.210;27.914;2024-01-25T05:04:11;45.50;;;40.53;;
63203;SDS011;49297;43.210;27.914;2024-01-25T05:06:40;42.88;;;38.38;;
63203;SDS011;49297;43.210;27.914;2024-01-25T05:09:08;46.58;;;37.88;;
63203;SDS011;49297;43.210;27.914;2024-01-25T05:11:39;62.40;;;55.08;;
63203;SDS011;49297;43.210;27.914;2024-01-25T05:14:07;99.87;;;80.63;;
63203;SDS011;49297;43.210;27.914;2024-01-25T05:16:35;55.75;;;46.00;;
63203;SDS011;49297;43.210;27.914;2024-01-25T05:19:03;57.57;;;48.13;;
63203;SDS011;49297;43.210;27.914;2024-01-25T05:21:32;58.50;;;48.88;;
63203;SDS011;49297;43.210;27.914;2024-01-25T05:24:00;59.30;;;44.40;;
63203;SDS011;49297;43.210;27.914;2024-01-25T05:26:28;47.42;;;42.38;;
63203;SDS011;49297;43.210;27.914;2024-01-25T05:28:56;42.20;;;37.72;;
63203;SDS011;49297;43.210;27.914;2024-01-25T05:31:24;44.15;;;39.08;;
63203;SDS011;49297;43.210;27.914;2024-01-25T05:33:52;46.17;;;40.25;;
63203;SDS011;49297;43.210;27.914;2024-01-25T05:36:20;47.90;;;39.42;;
63203;SDS011;49297;43.210;27.914;2024-01-25T05:38:49;48.75;;;43.35;;
63203;SDS011;49297;43.210;27.914;2024-01-25T05:41:17;40.72;;;36.35;;
63203;SDS011;49297;43.210;27.914;2024-01-25T05:43:46;54.92;;;38.47;;
63203;SDS011;49297;43.210;27.914;2024-01-25T05:46:14;44.37;;;38.33;;
63203;SDS011;49297;43.210;27.914;2024-01-25T05:48:44;47.97;;;41.15;;
63203;SDS011;49297;43.210;27.914;2024-01-25T05:51:13;44.97;;;40.03;;
63203;SDS011;49297;43.210;27.914;2024-01-25T05:53:41;46.00;;;40.83;;
63203;SDS011;49297;43.210;27.914;2024-01-25T05:56:09;48.30;;;42.72;;
63203;SDS011;49297;43.210;27.914;2024-01-25T05:58:37;46.20;;;41.30;;
63203;SDS011;49297;43.210;27.914;2024-01-25T06:01:06;52.90;;;41.83;;
63203;SDS011;49297;43.210;27.914;2024-01-25T06:03:34;45.70;;;40.25;;
63203;SDS011;49297;43.210;27.914;2024-01-25T06:06:03;51.03;;;41.22;;
63203;SDS011;49297;43.210;27.914;2024-01-25T06:08:34;45.60;;;40.63;;
63203;SDS011;49297;43.210;27.914;2024-01-25T06:11:02;42.50;;;38.20;;
63203;SDS011;49297;43.210;27.914;2024-01-25T06:13:31;44.70;;;35.83;;
63203;SDS011;49297;43.210;27.914;2024-01-25T06:15:59;41.03;;;36.10;;
63203;SDS011;49297;43.210;27.914;2024-01-25T06:18:28;36.60;;;30.52;;
63203;SDS011;49297;43.210;27.914;2024-01-25T06:20:56;33.57;;;29.93;;
63203;SDS011;49297;43.210;27.914;2024-01-25T06:23:24;31.92;;;28.73;;
63203;SDS011;49297;43.210;27.914;2024-01-25T06:25:53;26.98;;;24.05;;
63203;SDS011;49297;43.210;27.914;2024-01-25T06:28:21;23.17;;;20.83;;
63203;SDS011;49297;43.210;27.914;2024-01-25T06:30:52;23.55;;;19.98;;
63203;SDS011;49297;43.210;27.914;2024-01-25T06:33:20;23.30;;;18.58;;
63203;SDS011;49297;43.210;27.914;2024-01-25T06:35:48;27.77;;;19.17;;
63203;SDS011;49297;43.210;27.914;2024-01-25T06:38:18;19.95;;;17.55;;
63203;SDS011;49297;43.210;27.914;2024-01-25T06:40:46;21.02;;;17.13;;
63203;SDS011;49297;43.210;27.914;2024-01-25T06:43:15;20.88;;;17.17;;
63203;SDS011;49297;43.210;27.914;2024-01-25T06:45:43;23.00;;;16.05;;
63203;SDS011;49297;43.210;27.914;2024-01-25T06:48:11;16.40;;;14.80;;
63203;SDS011;49297;43.210;27.914;2024-01-25T06:50:40;17.10;;;15.40;;
63203;SDS011;49297;43.210;27.914;2024-01-25T06:53:09;14.63;;;11.70;;
63203;SDS011;49297;43.210;27.914;2024-01-25T06:55:37;17.50;;;12.02;;
63203;SDS011;49297;43.210;27.914;2024-01-25T06:58:06;14.77;;;13.23;;
63203;SDS011;49297;43.210;27.914;2024-01-25T07:00:34;15.50;;;12.67;;
63203;SDS011;49297;43.210;27.914;2024-01-25T07:03:05;14.43;;;12.98;;
63203;SDS011;49297;43.210;27.914;2024-01-25T07:05:33;14.02;;;12.60;;
63203;SDS011;49297;43.210;27.914;2024-01-25T07:08:02;15.00;;;13.40;;
63203;SDS011;49297;43.210;27.914;2024-01-25T07:10:31;18.08;;;13.73;;
63203;SDS011;49297;43.210;27.914;2024-01-25T07:13:00;18.35;;;15.10;;
63203;SDS011;49297;43.210;27.914;2024-01-25T07:15:30;17.38;;;14.23;;
63203;SDS011;49297;43.210;27.914;2024-01-25T07:17:58;20.33;;;14.43;;
63203;SDS011;49297;43.210;27.914;2024-01-25T07:20:27;15.88;;;14.23;;
63203;SDS011;49297;43.210;27.914;2024-01-25T07:22:56;14.93;;;13.38;;
63203;SDS011;49297;43.210;27.914;2024-01-25T07:25:24;15.03;;;12.87;;
63203;SDS011;49297;43.210;27.914;2024-01-25T07:27:53;16.88;;;13.80;;
63203;SDS011;49297;43.210;27.914;2024-01-25T07:30:22;21.73;;;15.20;;
63203;SDS011;49297;43.210;27.914;2024-01-25T07:32:51;19.42;;;15.05;;
63203;SDS011;49297;43.210;27.914;2024-01-25T07:35:20;16.13;;;10.88;;
63203;SDS011;49297;43.210;27.914;2024-01-25T07:37:50;20.25;;;15.20;;
63203;SDS011;49297;43.210;27.914;2024-01-25T07:40:18;18.52;;;14.48;;
63203;SDS011;49297;43.210;27.914;2024-01-25T07:42:47;17.52;;;13.85;;
63203;SDS011;49297;43.210;27.914;2024-01-25T07:45:16;17.45;;;15.55;;
63203;SDS011;49297;43.210;27.914;2024-01-25T07:47:44;15.68;;;13.57;;
63203;SDS011;49297;43.210;27.914;2024-01-25T07:50:17;13.20;;;10.85;;
63203;SDS011;49297;43.210;27.914;2024-01-25T07:52:46;17.33;;;14.48;;
63203;SDS011;49297;43.210;27.914;2024-01-25T07:55:16;11.93;;;8.90;;
63203;SDS011;49297;43.210;27.914;2024-01-25T07:57:45;15.35;;;12.15;;
63203;SDS011;49297;43.210;27.914;2024-01-25T08:00:13;16.58;;;10.50;;
63203;SDS011;49297;43.210;27.914;2024-01-25T08:02:43;12.20;;;10.90;;
63203;SDS011;49297;43.210;27.914;2024-01-25T08:05:12;16.75;;;11.05;;
63203;SDS011;49297;43.210;27.914;2024-01-25T08:07:41;17.58;;;11.20;;
63203;SDS011;49297;43.210;27.914;2024-01-25T08:10:09;14.53;;;11.13;;
63203;SDS011;49297;43.210;27.914;2024-01-25T08:12:38;13.75;;;10.82;;
63203;SDS011;49297;43.210;27.914;2024-01-25T08:15:10;11.57;;;9.75;;
63203;SDS011;49297;43.210;27.914;2024-01-25T08:17:39;14.70;;;8.93;;
63203;SDS011;49297;43.210;27.914;2024-01-25T08:20:08;23.17;;;17.48;;
63203;SDS011;49297;43.210;27.914;2024-01-25T08:22:42;9.70;;;8.23;;
63203;SDS011;49297;43.210;27.914;2024-01-25T08:25:10;19.05;;;13.82;;
63203;SDS011;49297;43.210;27.914;2024-01-25T08:27:40;14.90;;;11.73;;
63203;SDS011;49297;43.210;27.914;2024-01-25T08:30:09;13.02;;;10.82;;
63203;SDS011;49297;43.210;27.914;2024-01-25T08:32:40;16.95;;;13.43;;
63203;SDS011;49297;43.210;27.914;2024-01-25T08:35:11;11.48;;;9.80;;
63203;SDS011;49297;43.210;27.914;2024-01-25T08:37:39;10.05;;;8.45;;
63203;SDS011;49297;43.210;27.914;2024-01-25T08:40:09;11.45;;;9.70;;
63203;SDS011;49297;43.210;27.914;2024-01-25T08:42:39;13.13;;;9.40;;
63203;SDS011;49297;43.210;27.914;2024-01-25T08:45:08;12.57;;;9.63;;
63203;SDS011;49297;43.210;27.914;2024-01-25T08:47:37;12.98;;;9.65;;
63203;SDS011;49297;43.210;27.914;2024-01-25T08:50:06;12.43;;;9.40;;
63203;SDS011;49297;43.210;27.914;2024-01-25T08:52:45;13.40;;;11.53;;
63203;SDS011;49297;43.210;27.914;2024-01-25T08:55:14;14.10;;;10.65;;
63203;SDS011;49297;43.210;27.914;2024-01-25T08:57:42;12.70;;;10.37;;
63203;SDS011;49297;43.210;27.914;2024-01-25T09:00:11;14.45;;;10.25;;
63203;SDS011;49297;43.210;27.914;2024-01-25T09:02:41;13.93;;;10.77;;
63203;SDS011;49297;43.210;27.914;2024-01-25T09:05:10;16.60;;;13.15;;
63203;SDS011;49297;43.210;27.914;2024-01-25T09:07:42;13.60;;;10.00;;
63203;SDS011;49297;43.210;27.914;2024-01-25T09:10:11;14.15;;;8.75;;
63203;SDS011;49297;43.210;27.914;2024-01-25T09:12:40;12.88;;;8.25;;
63203;SDS011;49297;43.210;27.914;2024-01-25T09:15:08;10.27;;;9.18;;
63203;SDS011;49297;43.210;27.914;2024-01-25T09:17:38;15.85;;;10.73;;
63203;SDS011;49297;43.210;27.914;2024-01-25T09:20:07;13.45;;;11.60;;
63203;SDS011;49297;43.210;27.914;2024-01-25T09:22:37;16.98;;;13.73;;
63203;SDS011;49297;43.210;27.914;2024-01-25T09:25:05;15.57;;;12.30;;
63203;SDS011;49297;43.210;27.914;2024-01-25T09:27:35;18.08;;;15.25;;
63203;SDS011;49297;43.210;27.914;2024-01-25T09:30:05;17.50;;;13.10;;
63203;SDS011;49297;43.210;27.914;2024-01-25T09:32:36;15.87;;;11.73;;
63203;SDS011;49297;43.210;27.914;2024-01-25T09:35:05;12.98;;;10.70;;
63203;SDS011;49297;43.210;27.914;2024-01-25T09:37:35;10.00;;;8.70;;
63203;SDS011;49297;43.210;27.914;2024-01-25T09:40:03;12.95;;;8.60;;
63203;SDS011;49297;43.210;27.914;2024-01-25T09:42:36;12.00;;;10.07;;
63203;SDS011;49297;43.210;27.914;2024-01-25T09:45:05;13.98;;;11.52;;
63203;SDS011;49297;43.210;27.914;2024-01-25T09:47:36;18.17;;;11.40;;
63203;SDS011;49297;43.210;27.914;2024-01-25T09:50:05;12.75;;;10.68;;
63203;SDS011;49297;43.210;27.914;2024-01-25T09:52:37;12.90;;;9.52;;
63203;SDS011;49297;43.210;27.914;2024-01-25T09:55:07;14.60;;;9.27;;
63203;SDS011;49297;43.210;27.914;2024-01-25T09:57:45;11.77;;;9.02;;
63203;SDS011;49297;43.210;27.914;2024-01-25T10:00:16;11.32;;;9.20;;
63203;SDS011;49297;43.210;27.914;2024-01-25T10:02:49;12.35;;;9.02;;
63203;SDS011;49297;43.210;27.914;2024-01-25T10:05:19;13.93;;;9.55;;
63203;SDS011;49297;43.210;27.914;2024-01-25T10:07:49;10.95;;;8.02;;
63203;SDS011;49297;43.210;27.914;2024-01-25T10:10:17;11.13;;;7.75;;
63203;SDS011;49297;43.210;27.914;2024-01-25T10:12:46;8.07;;;7.15;;
63203;SDS011;49297;43.210;27.914;2024-01-25T10:15:15;11.65;;;8.55;;
63203;SDS011;49297;43.210;27.914;2024-01-25T10:17:43;10.57;;;7.80;;
63203;SDS011;49297;43.210;27.914;2024-01-25T10:20:13;12.23;;;8.10;;
63203;SDS011;49297;43.210;27.914;2024-01-25T10:22:43;10.02;;;7.40;;
63203;SDS011;49297;43.210;27.914;2024-01-25T10:25:14;12.37;;;8.43;;
63203;SDS011;49297;43.210;27.914;2024-01-25T10:27:43;11.93;;;6.97;;
63203;SDS011;49297;43.210;27.914;2024-01-25T10:30:11;10.50;;;8.25;;
63203;SDS011;49297;43.210;27.914;2024-01-25T10:32:41;10.10;;;6.80;;
63203;SDS011;49297;43.210;27.914;2024-01-25T10:35:10;10.53;;;7.70;;
63203;SDS011;49297;43.210;27.914;2024-01-25T10:37:39;18.90;;;7.18;;
63203;SDS011;49297;43.210;27.914;2024-01-25T10:40:09;9.07;;;6.60;;
63203;SDS011;49297;43.210;27.914;2024-01-25T10:42:40;8.35;;;7.15;;
63203;SDS011;49297;43.210;27.914;2024-01-25T10:45:09;9.30;;;7.22;;
63203;SDS011;49297;43.210;27.914;2024-01-25T10:47:37;9.38;;;6.88;;
63203;SDS011;49297;43.210;27.914;2024-01-25T10:50:07;8.73;;;7.13;;
63203;SDS011;49297;43.210;27.914;2024-01-25T10:52:36;12.20;;;7.47;;
63203;SDS011;49297;43.210;27.914;2024-01-25T10:55:06;16.45;;;8.38;;
63203;SDS011;49297;43.210;27.914;2024-01-25T10:57:39;9.88;;;7.55;;
63203;SDS011;49297;43.210;27.914;2024-01-25T11:00:15;10.05;;;7.50;;
63203;SDS011;49297;43.210;27.914;2024-01-25T11:03:00;10.68;;;7.93;;
63203;SDS011;49297;43.210;27.914;2024-01-25T11:05:28;12.80;;;7.70;;
63203;SDS011;49297;43.210;27.914;2024-01-25T11:07:57;9.98;;;8.40;;
63203;SDS011;49297;43.210;27.914;2024-01-25T11:10:26;11.30;;;8.63;;
63203;SDS011;49297;43.210;27.914;2024-01-25T11:12:56;8.82;;;7.40;;
63203;SDS011;49297;43.210;27.914;2024-01-25T11:15:31;10.50;;;7.13;;
63203;SDS011;49297;43.210;27.914;2024-01-25T11:18:01;9.88;;;7.90;;
63203;SDS011;49297;43.210;27.914;2024-01-25T11:20:35;10.55;;;9.25;;
63203;SDS011;49297;43.210;27.914;2024-01-25T11:23:05;15.77;;;9.98;;
63203;SDS011;49297;43.210;27.914;2024-01-25T11:25:36;12.38;;;9.07;;
63203;SDS011;49297;43.210;27.914;2024-01-25T11:28:05;14.15;;;10.63;;
63203;SDS011;49297;43.210;27.914;2024-01-25T11:30:34;14.15;;;9.55;;
63203;SDS011;49297;43.210;27.914;2024-01-25T11:33:04;19.55;;;13.05;;
63203;SDS011;49297;43.210;27.914;2024-01-25T11:35:55;14.63;;;9.35;;
63203;SDS011;49297;43.210;27.914;2024-01-25T11:38:24;13.02;;;8.23;;
63203;SDS011;49297;43.210;27.914;2024-01-25T11:40:56;15.43;;;8.60;;
63203;SDS011;49297;43.210;27.914;2024-01-25T11:43:25;11.52;;;7.68;;
63203;SDS011;49297;43.210;27.914;2024-01-25T11:45:54;14.93;;;7.30;;
63203;SDS011;49297;43.210;27.914;2024-01-25T11:48:23;13.98;;;8.02;;
63203;SDS011;49297;43.210;27.914;2024-01-25T11:50:54;10.23;;;7.43;;
63203;SDS011;49297;43.210;27.914;2024-01-25T11:53:25;10.90;;;7.57;;
63203;SDS011;49297;43.210;27.914;2024-01-25T11:55:53;12.93;;;7.28;;
63203;SDS011;49297;43.210;27.914;2024-01-25T11:58:23;14.50;;;8.30;;
63203;SDS011;49297;43.210;27.914;2024-01-25T12:00:53;11.88;;;9.50;;
63203;SDS011;49297;43.210;27.914;2024-01-25T12:03:21;16.27;;;10.15;;
63203;SDS011;49297;43.210;27.914;2024-01-25T12:05:50;12.43;;;8.18;;
63203;SDS011;49297;43.210;27.914;2024-01-25T12:08:20;17.08;;;8.32;;
63203;SDS011;49297;43.210;27.914;2024-01-25T12:10:49;14.90;;;7.85;;
63203;SDS011;49297;43.210;27.914;2024-01-25T12:13:17;11.95;;;7.30;;
63203;SDS011;49297;43.210;27.914;2024-01-25T12:15:45;12.75;;;8.38;;
63203;SDS011;49297;43.210;27.914;2024-01-25T12:18:14;15.05;;;10.27;;
63203;SDS011;49297;43.210;27.914;2024-01-25T12:20:42;14.23;;;9.77;;
63203;SDS011;49297;43.210;27.914;2024-01-25T12:23:12;10.25;;;7.57;;
63203;SDS011;49297;43.210;27.914;2024-01-25T12:25:46;11.27;;;7.43;;
63203;SDS011;49297;43.210;27.914;2024-01-25T12:28:15;9.70;;;7.57;;
63203;SDS011;49297;43.210;27.914;2024-01-25T12:30:44;11.82;;;8.65;;
63203;SDS011;49297;43.210;27.914;2024-01-25T12:33:12;12.93;;;9.30;;
63203;SDS011;49297;43.210;27.914;2024-01-25T12:35:42;18.08;;;10.73;;
63203;SDS011;49297;43.210;27.914;2024-01-25T12:38:10;21.03;;;11.83;;
63203;SDS011;49297;43.210;27.914;2024-01-25T12:40:40;13.63;;;10.02;;
63203;SDS011;49297;43.210;27.914;2024-01-25T12:43:11;14.23;;;9.43;;
63203;SDS011;49297;43.210;27.914;2024-01-25T12:45:39;14.48;;;8.48;;
63203;SDS011;49297;43.210;27.914;2024-01-25T12:48:07;13.35;;;8.73;;
63203;SDS011;49297;43.210;27.914;2024-01-25T12:50:36;10.18;;;7.60;;
63203;SDS011;49297;43.210;27.914;2024-01-25T12:53:04;9.73;;;8.65;;
63203;SDS011;49297;43.210;27.914;2024-01-25T12:55:34;12.37;;;10.27;;
63203;SDS011;49297;43.210;27.914;2024-01-25T12:58:03;13.77;;;9.80;;
63203;SDS011;49297;43.210;27.914;2024-01-25T13:00:31;15.73;;;10.52;;
63203;SDS011;49297;43.210;27.914;2024-01-25T13:03:00;11.50;;;8.68;;
63203;SDS011;49297;43.210;27.914;2024-01-25T13:05:29;14.20;;;11.27;;
63203;SDS011;49297;43.210;27.914;2024-01-25T13:08:00;13.77;;;8.88;;
63203;SDS011;49297;43.210;27.914;2024-01-25T13:10:29;13.98;;;10.32;;
63203;SDS011;49297;43.210;27.914;2024-01-25T13:12:57;13.27;;;9.43;;
63203;SDS011;49297;43.210;27.914;2024-01-25T13:15:26;9.85;;;8.05;;
63203;SDS011;49297;43.210;27.914;2024-01-25T13:17:54;14.10;;;10.10;;
63203;SDS011;49297;43.210;27.914;2024-01-25T13:20:23;14.32;;;10.63;;
63203;SDS011;49297;43.210;27.914;2024-01-25T13:22:51;14.32;;;10.07;;
63203;SDS011;49297;43.210;27.914;2024-01-25T13:25:20;17.90;;;11.37;;
63203;SDS011;49297;43.210;27.914;2024-01-25T13:27:49;19.50;;;9.90;;
63203;SDS011;49297;43.210;27.914;2024-01-25T13:30:18;13.60;;;11.13;;
63203;SDS011;49297;43.210;27.914;2024-01-25T13:32:46;19.48;;;11.18;;
63203;SDS011;49297;43.210;27.914;2024-01-25T13:35:15;15.15;;;9.80;;
63203;SDS011;49297;43.210;27.914;2024-01-25T13:37:43;12.98;;;9.82;;
63203;SDS011;49297;43.210;27.914;2024-01-25T13:40:11;20.45;;;10.85;;
63203;SDS011;49297;43.210;27.914;2024-01-25T13:42:40;17.92;;;11.30;;
63203;SDS011;49297;43.210;27.914;2024-01-25T13:45:09;12.55;;;10.48;;
63203;SDS011;49297;43.210;27.914;2024-01-25T13:47:38;14.80;;;11.00;;
63203;SDS011;49297;43.210;27.914;2024-01-25T13:50:06;21.92;;;11.90;;
63203;SDS011;49297;43.210;27.914;2024-01-25T13:52:38;14.63;;;11.13;;
63203;SDS011;49297;43.210;27.914;2024-01-25T13:55:06;14.40;;;10.00;;
63203;SDS011;49297;43.210;27.914;2024-01-25T13:57:35;16.20;;;10.48;;
63203;SDS011;49297;43.210;27.914;2024-01-25T14:00:04;13.93;;;10.00;;
63203;SDS011;49297;43.210;27.914;2024-01-25T14:02:35;14.40;;;9.93;;
63203;SDS011;49297;43.210;27.914;2024-01-25T14:05:05;13.10;;;10.27;;
63203;SDS011;49297;43.210;27.914;2024-01-25T14:07:34;14.10;;;9.82;;
63203;SDS011;49297;43.210;27.914;2024-01-25T14:10:02;19.40;;;11.33;;
63203;SDS011;49297;43.210;27.914;2024-01-25T14:12:32;16.33;;;10.68;;
63203;SDS011;49297;43.210;27.914;2024-01-25T14:15:00;15.75;;;10.85;;
63203;SDS011;49297;43.210;27.914;2024-01-25T14:17:29;15.13;;;10.45;;
63203;SDS011;49297;43.210;27.914;2024-01-25T14:19:57;17.63;;;10.63;;
63203;SDS011;49297;43.210;27.914;2024-01-25T14:22:26;19.00;;;11.27;;
63203;SDS011;49297;43.210;27.914;2024-01-25T14:24:55;13.67;;;9.93;;